createdAt,value
2016-10-20T00:00:09.944Z,46.25
2016-10-20T00:01:20.504Z,46.08
2016-10-20T00:02:31.726Z,45.95
2016-10-20T00:03:42.268Z,46.44
2016-10-20T00:04:52.831Z,46.34
2016-10-20T00:06:03.425Z,46.83
2016-10-20T00:07:13.990Z,47.03
2016-10-20T00:08:24.628Z,47.42
2016-10-20T00:09:35.191Z,47.03
2016-10-20T00:10:45.700Z,47.52
2016-10-20T00:11:56.196Z,47.32
2016-10-20T00:13:06.770Z,47.42
2016-10-20T00:14:17.497Z,47.8
2016-10-20T00:15:28.054Z,48
2016-10-20T00:16:38.593Z,48.1
2016-10-20T00:17:49.143Z,48.66
2016-10-20T00:18:59.701Z,48.56
2016-10-20T00:20:10.354Z,48.66
2016-10-20T00:21:21.318Z,48.75
2016-10-20T00:22:31.876Z,48.75
2016-10-20T00:23:42.427Z,49.05
2016-10-20T00:24:52.975Z,49.34
2016-10-20T00:26:03.508Z,50.8
2016-10-20T00:27:14.027Z,51.58
2016-10-20T00:28:24.589Z,54.21
2016-10-20T00:29:35.162Z,55.37
2016-10-20T00:30:45.732Z,56.12
2016-10-20T00:31:56.378Z,57.2
2016-10-20T00:33:06.925Z,58.36
2016-10-20T00:34:17.505Z,58.95
2016-10-20T00:35:28.093Z,59.5
2016-10-20T00:36:38.616Z,59.79
2016-10-20T00:37:49.132Z,60.83
2016-10-20T00:38:59.706Z,61.41
2016-10-20T00:40:10.233Z,62.68
2016-10-20T00:41:21.256Z,63.75
2016-10-20T00:42:31.821Z,64.11
2016-10-20T00:43:42.494Z,64.53
2016-10-20T00:44:53.031Z,64.65
2016-10-20T00:46:03.557Z,64.59
2016-10-20T00:47:14.095Z,65.24
2016-10-20T00:48:24.631Z,65.63
2016-10-20T00:49:35.219Z,66.6
2016-10-20T00:50:45.717Z,66.6
2016-10-20T00:51:56.268Z,66.66
2016-10-20T00:53:06.797Z,67.14
2016-10-20T00:54:17.377Z,67.83
2016-10-20T00:55:27.991Z,67.73
2016-10-20T00:56:38.527Z,67.92
2016-10-20T00:57:49.058Z,68.6
2016-10-20T00:58:59.601Z,69.54
2016-10-20T01:00:10.119Z,69.93
2016-10-20T01:01:20.640Z,69.83
2016-10-20T01:02:31.174Z,69.83
2016-10-20T01:03:41.711Z,69.99
2016-10-20T01:04:52.216Z,70.57
2016-10-20T01:06:02.742Z,71.06
2016-10-20T01:07:13.365Z,71.54
2016-10-20T01:08:23.903Z,72.31
2016-10-20T01:09:34.450Z,72.51
2016-10-20T01:10:44.995Z,72.38
2016-10-20T01:11:55.540Z,72.47
2016-10-20T01:13:06.047Z,72.77
2016-10-20T01:14:16.549Z,73.25
2016-10-20T01:15:27.558Z,73.54
2016-10-20T01:16:38.123Z,73.5
2016-10-20T01:17:48.705Z,73.69
2016-10-20T01:18:59.394Z,74.02
2016-10-20T01:20:09.953Z,73.99
2016-10-20T01:21:20.500Z,74.28
2016-10-20T01:22:31.120Z,74.66
2016-10-20T01:23:41.626Z,74.86
2016-10-20T01:24:52.167Z,74.86
2016-10-20T01:26:02.720Z,74.76
2016-10-20T01:27:13.270Z,75.34
2016-10-20T01:28:23.802Z,75.34
2016-10-20T01:29:34.333Z,74.76
2016-10-20T01:30:44.930Z,74.76
2016-10-20T01:31:55.475Z,74.66
2016-10-20T01:33:05.996Z,74.86
2016-10-20T01:34:17.039Z,74.66
2016-10-20T01:35:27.526Z,75.54
2016-10-20T01:36:38.156Z,75.24
2016-10-20T01:37:48.661Z,75.24
2016-10-20T01:38:59.203Z,74.96
2016-10-20T01:40:09.780Z,75.34
2016-10-20T01:41:20.350Z,75.05
2016-10-20T01:42:31.266Z,75.63
2016-10-20T01:43:41.792Z,75.54
2016-10-20T01:44:52.264Z,76.31
2016-10-20T01:46:03.772Z,75.4
2016-10-20T01:47:14.331Z,75.4
2016-10-20T01:48:25.005Z,75.5
2016-10-20T01:49:35.577Z,75.5
2016-10-20T01:50:46.081Z,75.4
2016-10-20T01:51:56.625Z,76.18
2016-10-20T01:53:07.169Z,76.18
2016-10-20T01:54:17.701Z,75.89
2016-10-20T01:55:28.256Z,76.18
2016-10-20T01:56:38.776Z,76.28
2016-10-20T01:57:49.337Z,76.56
2016-10-20T01:58:59.891Z,76.46
2016-10-20T02:00:10.538Z,76.95
2016-10-20T02:01:21.077Z,76.37
2016-10-20T02:02:31.626Z,76.37
2016-10-20T02:03:42.214Z,76.66
2016-10-20T02:04:52.758Z,76.56
2016-10-20T02:06:03.410Z,77.05
2016-10-20T02:07:13.952Z,77.34
2016-10-20T02:08:24.444Z,76.86
2016-10-20T02:09:34.960Z,77.53
2016-10-20T02:10:45.442Z,77.5
2016-10-20T02:11:55.974Z,76.66
2016-10-20T02:13:06.447Z,76.62
2016-10-20T02:14:16.958Z,76.91
2016-10-20T02:15:27.500Z,76.95
2016-10-20T02:16:38.028Z,76.46
2016-10-20T02:17:48.603Z,76.95
2016-10-20T02:18:59.145Z,76.62
2016-10-20T02:20:09.691Z,77.01
2016-10-20T02:21:20.275Z,76.72
2016-10-20T02:22:30.839Z,76.82
2016-10-20T02:23:41.521Z,77.5
2016-10-20T02:24:52.058Z,77.69
2016-10-20T02:26:02.596Z,77.59
2016-10-20T02:27:13.119Z,77.3
2016-10-20T02:28:23.712Z,77.5
2016-10-20T02:29:34.364Z,77.78
2016-10-20T02:30:44.939Z,77.59
2016-10-20T02:31:55.462Z,78.17
2016-10-20T02:33:06.012Z,77.98
2016-10-20T02:34:16.565Z,78.08
2016-10-20T02:35:27.122Z,77.69
2016-10-20T02:36:37.673Z,77.5
2016-10-20T02:37:48.242Z,77.2
2016-10-20T02:38:58.801Z,77.98
2016-10-20T02:40:09.372Z,77.69
2016-10-20T02:41:19.891Z,77.2
2016-10-20T02:42:30.464Z,77.69
2016-10-20T02:43:41.011Z,77.88
2016-10-20T02:44:51.546Z,78.46
2016-10-20T02:46:02.126Z,78.23
2016-10-20T02:47:12.676Z,78.03
2016-10-20T02:48:23.177Z,78.23
2016-10-20T02:49:33.738Z,78.33
2016-10-20T02:50:44.803Z,78.42
2016-10-20T02:51:55.361Z,78.23
2016-10-20T02:53:06.005Z,77.84
2016-10-20T02:54:17.042Z,78.91
2016-10-20T02:55:27.603Z,78.42
2016-10-20T02:56:38.145Z,79.2
2016-10-20T02:57:48.756Z,79
2016-10-20T02:58:59.285Z,78.52
2016-10-20T03:00:09.864Z,78.33
2016-10-20T03:01:20.409Z,79.2
2016-10-20T03:02:30.928Z,78.42
2016-10-20T03:03:41.453Z,78.52
2016-10-20T03:04:52.109Z,79.1
2016-10-20T03:06:02.633Z,79.2
2016-10-20T03:07:13.148Z,79.1
2016-10-20T03:08:23.666Z,78.61
2016-10-20T03:09:34.192Z,79.2
2016-10-20T03:10:44.760Z,78.81
2016-10-20T03:11:55.276Z,79.29
2016-10-20T03:13:05.815Z,79.29
2016-10-20T03:14:16.846Z,79.87
2016-10-20T03:15:27.380Z,80.16
2016-10-20T03:16:37.988Z,80.26
2016-10-20T03:17:48.524Z,80.26
2016-10-20T03:18:59.069Z,80.26
2016-10-20T03:20:09.577Z,80.07
2016-10-20T03:21:20.119Z,80.07
2016-10-20T03:22:30.630Z,80.07
2016-10-20T03:23:41.156Z,79.97
2016-10-20T03:24:51.684Z,79.78
2016-10-20T03:26:02.200Z,79.78
2016-10-20T03:27:12.751Z,79.87
2016-10-20T03:28:23.930Z,79.2
2016-10-20T03:29:34.986Z,79.78
2016-10-20T03:30:45.504Z,80.16
2016-10-20T03:31:56.049Z,79.78
2016-10-20T03:33:06.571Z,79.87
2016-10-20T03:34:17.171Z,79.78
2016-10-20T03:35:28.187Z,79.68
2016-10-20T03:36:38.738Z,80.07
2016-10-20T03:37:49.275Z,80.26
2016-10-20T03:38:59.830Z,80.26
2016-10-20T03:40:10.412Z,80.12
2016-10-20T03:41:20.992Z,80.07
2016-10-20T03:42:31.543Z,80.07
2016-10-20T03:43:42.119Z,80.03
2016-10-20T03:44:52.621Z,80.07
2016-10-20T03:46:03.169Z,80.26
2016-10-20T03:47:13.668Z,80.07
2016-10-20T03:48:24.237Z,80.16
2016-10-20T03:49:34.779Z,80.74
2016-10-20T03:50:45.336Z,80.41
2016-10-20T03:51:55.957Z,80.8
2016-10-20T03:53:06.437Z,80.8
2016-10-20T03:54:16.960Z,80.8
2016-10-20T03:55:27.512Z,80.71
2016-10-20T03:56:38.023Z,80.8
2016-10-20T03:57:49.013Z,81.09
2016-10-20T03:58:59.566Z,80.71
2016-10-20T04:00:10.106Z,80.9
2016-10-20T04:01:20.653Z,80.99
2016-10-20T04:02:31.179Z,80.8
2016-10-20T04:03:41.798Z,81.38
2016-10-20T04:04:52.338Z,81.09
2016-10-20T04:06:02.858Z,80.12
2016-10-20T04:07:13.349Z,80.22
2016-10-20T04:08:23.908Z,80.12
2016-10-20T04:09:34.417Z,81.09
2016-10-20T04:10:44.895Z,80.99
2016-10-20T04:11:55.387Z,80.9
2016-10-20T04:13:05.881Z,81.09
2016-10-20T04:14:16.360Z,80.9
2016-10-20T04:15:26.949Z,80.41
2016-10-20T04:16:37.452Z,80.99
2016-10-20T04:17:47.969Z,80.41
2016-10-20T04:18:58.510Z,80.22
2016-10-20T04:20:08.971Z,80.12
2016-10-20T04:21:19.500Z,80.32
2016-10-20T04:22:30.024Z,80.32
2016-10-20T04:23:40.517Z,80.61
2016-10-20T04:24:51.019Z,80.9
2016-10-20T04:26:01.597Z,80.71
2016-10-20T04:27:12.196Z,81.48
2016-10-20T04:28:22.694Z,80.8
2016-10-20T04:29:33.211Z,80.71
2016-10-20T04:30:43.707Z,80.9
2016-10-20T04:31:54.204Z,80.9
2016-10-20T04:33:04.716Z,81.48
2016-10-20T04:34:15.233Z,80.99
2016-10-20T04:35:25.747Z,80.99
2016-10-20T04:36:36.236Z,80.9
2016-10-20T04:37:46.735Z,80.32
2016-10-20T04:38:57.350Z,80.51
2016-10-20T04:40:07.903Z,80.41
2016-10-20T04:41:18.425Z,80.51
2016-10-20T04:42:28.908Z,80.22
2016-10-20T04:43:39.533Z,80.22
2016-10-20T04:44:50.041Z,80.51
2016-10-20T04:46:00.561Z,80.51
2016-10-20T04:47:11.060Z,81.09
2016-10-20T04:48:21.929Z,81.73
2016-10-20T04:49:32.386Z,81.53
2016-10-20T04:50:42.983Z,81.63
2016-10-20T04:51:53.490Z,81.29
2016-10-20T04:53:04.025Z,81.15
2016-10-20T04:54:15.027Z,81.24
2016-10-20T04:55:25.550Z,81.44
2016-10-20T04:56:36.138Z,81.44
2016-10-20T04:57:46.612Z,81.34
2016-10-20T04:58:57.144Z,81.05
2016-10-20T05:00:07.607Z,81.53
2016-10-20T05:01:18.181Z,81.34
2016-10-20T05:02:28.674Z,81.24
2016-10-20T05:03:39.230Z,81.44
2016-10-20T05:04:49.722Z,81.73
2016-10-20T05:06:00.226Z,80.76
2016-10-20T05:07:10.747Z,80.38
2016-10-20T05:08:21.338Z,80.28
2016-10-20T05:09:31.827Z,80.18
2016-10-20T05:10:42.387Z,80.38
2016-10-20T05:11:52.875Z,80.22
2016-10-20T05:13:03.446Z,80.18
2016-10-20T05:14:13.944Z,80.38
2016-10-20T05:15:24.482Z,80.38
2016-10-20T05:16:35.053Z,80.08
2016-10-20T05:17:45.603Z,80.86
2016-10-20T05:18:56.175Z,80.66
2016-10-20T05:20:06.792Z,80.86
2016-10-20T05:21:17.412Z,81.15
2016-10-20T05:22:27.901Z,80.95
2016-10-20T05:23:38.458Z,80.76
2016-10-20T05:24:49.006Z,81.44
2016-10-20T05:25:59.686Z,81.15
2016-10-20T05:27:10.222Z,80.76
2016-10-20T05:28:20.807Z,80.47
2016-10-20T05:29:31.349Z,81.24
2016-10-20T05:30:41.873Z,81.05
2016-10-20T05:31:52.455Z,80.76
2016-10-20T05:33:02.988Z,80.66
2016-10-20T05:34:13.558Z,81.15
2016-10-20T05:35:24.084Z,81.24
2016-10-20T05:36:34.702Z,81.24
2016-10-20T05:37:45.379Z,81.05
2016-10-20T05:38:55.941Z,81.05
2016-10-20T05:40:06.513Z,80.76
2016-10-20T05:41:17.055Z,81.24
2016-10-20T05:42:27.567Z,81.24
2016-10-20T05:43:38.089Z,81.44
2016-10-20T05:44:48.604Z,81.44
2016-10-20T05:45:59.074Z,81.53
2016-10-20T05:47:09.608Z,81.73
2016-10-20T05:48:20.103Z,82.02
2016-10-20T05:49:30.682Z,82.21
2016-10-20T05:50:41.191Z,82.11
2016-10-20T05:51:51.738Z,82.84
2016-10-20T05:53:02.272Z,82.75
2016-10-20T05:54:12.747Z,82.79
2016-10-20T05:55:23.267Z,82.69
2016-10-20T05:56:33.724Z,82.69
2016-10-20T05:57:44.230Z,82.79
2016-10-20T05:58:54.733Z,82.84
2016-10-20T06:00:05.724Z,82.36
2016-10-20T06:01:16.314Z,82.84
2016-10-20T06:02:26.823Z,82.17
2016-10-20T06:03:37.302Z,82.46
2016-10-20T06:04:47.819Z,82.65
2016-10-20T06:05:58.318Z,82.56
2016-10-20T06:07:08.807Z,82.94
2016-10-20T06:08:19.312Z,82.94
2016-10-20T06:09:30.259Z,83.14
2016-10-20T06:10:40.802Z,82.84
2016-10-20T06:11:51.304Z,83.14
2016-10-20T06:13:01.904Z,82.56
2016-10-20T06:14:12.397Z,82.94
2016-10-20T06:15:22.887Z,82.84
2016-10-20T06:16:33.411Z,82.17
2016-10-20T06:17:43.893Z,83.04
2016-10-20T06:18:54.429Z,82.56
2016-10-20T06:20:05.005Z,83.14
2016-10-20T06:21:15.580Z,83.04
2016-10-20T06:22:26.153Z,82.94
2016-10-20T06:23:36.735Z,82.94
2016-10-20T06:24:47.404Z,82.75
2016-10-20T06:25:57.980Z,83.04
2016-10-20T06:27:08.576Z,83.14
2016-10-20T06:28:19.161Z,83.42
2016-10-20T06:29:29.743Z,83.33
2016-10-20T06:30:40.309Z,83.23
2016-10-20T06:31:50.896Z,83.33
2016-10-20T06:33:01.961Z,83.33
2016-10-20T06:34:12.543Z,83.14
2016-10-20T06:35:23.112Z,83.62
2016-10-20T06:36:33.962Z,83.81
2016-10-20T06:37:44.551Z,84.44
2016-10-20T06:38:55.127Z,84.25
2016-10-20T06:40:05.697Z,83.72
2016-10-20T06:41:16.268Z,84.35
2016-10-20T06:42:26.873Z,83.67
2016-10-20T06:43:37.496Z,84.35
2016-10-20T06:44:48.100Z,83.77
2016-10-20T06:45:58.675Z,83.87
2016-10-20T06:47:09.238Z,84.1
2016-10-20T06:48:19.918Z,83.87
2016-10-20T06:49:30.494Z,83.52
2016-10-20T06:50:41.068Z,83.77
2016-10-20T06:51:51.603Z,84
2016-10-20T06:53:02.601Z,84.1
2016-10-20T06:54:13.153Z,83.33
2016-10-20T06:55:23.625Z,83.42
2016-10-20T06:56:34.106Z,83.42
2016-10-20T06:57:44.618Z,83.62
2016-10-20T06:58:55.099Z,83.62
2016-10-20T07:00:05.677Z,83.91
2016-10-20T07:01:16.156Z,83.62
2016-10-20T07:02:26.639Z,84.3
2016-10-20T07:03:37.168Z,84.3
2016-10-20T07:04:47.639Z,84.2
2016-10-20T07:05:58.125Z,84.1
2016-10-20T07:07:08.610Z,84.39
2016-10-20T07:08:19.133Z,84.48
2016-10-20T07:09:30.090Z,84.64
2016-10-20T07:10:40.616Z,84.16
2016-10-20T07:11:51.201Z,84.74
2016-10-20T07:13:01.717Z,84.78
2016-10-20T07:14:12.258Z,84.83
2016-10-20T07:15:22.833Z,85.7
2016-10-20T07:16:33.698Z,85.6
2016-10-20T07:17:44.173Z,88.73
2016-10-20T07:18:54.649Z,90.43
2016-10-20T07:20:05.139Z,91.49
2016-10-20T07:21:15.617Z,92.26
2016-10-20T07:22:26.104Z,93.04
2016-10-20T07:23:36.679Z,92.55
2016-10-20T07:24:47.174Z,93.52
2016-10-20T07:25:57.689Z,94.92
2016-10-20T07:27:08.743Z,94.63
2016-10-20T07:28:19.286Z,93.66
2016-10-20T07:29:29.859Z,95.11
2016-10-20T07:30:40.417Z,96.46
2016-10-20T07:31:50.968Z,97.09
2016-10-20T07:33:01.524Z,97.96
2016-10-20T07:34:12.046Z,98.44
2016-10-20T07:35:22.687Z,98.73
2016-10-20T07:36:33.246Z,98.82
2016-10-20T07:37:43.764Z,99.84
2016-10-20T07:38:54.310Z,99.6
2016-10-20T07:40:04.870Z,98.77
2016-10-20T07:41:15.952Z,99.3
2016-10-20T07:42:26.525Z,98.92
2016-10-20T07:43:37.116Z,99.93
2016-10-20T07:44:47.651Z,99.35
2016-10-20T07:45:58.208Z,99.5
2016-10-20T07:47:08.807Z,99.4
2016-10-20T07:48:19.325Z,99.69
2016-10-20T07:49:29.912Z,99.6
2016-10-20T07:50:40.480Z,99.07
2016-10-20T07:51:51.029Z,98.77
2016-10-20T07:53:02.143Z,98.58
2016-10-20T07:54:12.665Z,99.35
2016-10-20T07:55:23.193Z,99.84
2016-10-20T07:56:33.752Z,98.68
2016-10-20T07:57:44.315Z,98.77
2016-10-20T07:58:54.872Z,98.68
2016-10-20T08:00:05.409Z,98.77
2016-10-20T08:01:15.966Z,98.68
2016-10-20T08:02:26.545Z,98.1
2016-10-20T08:03:37.096Z,98.2
2016-10-20T08:04:47.635Z,97.52
2016-10-20T08:05:58.133Z,97.67
2016-10-20T08:07:08.712Z,98.1
2016-10-20T08:08:19.282Z,97.28
2016-10-20T08:09:29.843Z,97.38
2016-10-20T08:10:40.544Z,97.28
2016-10-20T08:11:51.085Z,98.63
2016-10-20T08:13:01.627Z,97.38
2016-10-20T08:14:12.178Z,97.09
2016-10-20T08:15:22.675Z,96.99
2016-10-20T08:16:33.325Z,96.99
2016-10-20T08:17:43.888Z,96.89
2016-10-20T08:18:54.410Z,97.72
2016-10-20T08:20:04.976Z,96.17
2016-10-20T08:21:15.486Z,96.42
2016-10-20T08:22:26.024Z,96.42
2016-10-20T08:23:36.541Z,96.7
2016-10-20T08:24:47.588Z,96.22
2016-10-20T08:25:58.171Z,95.89
2016-10-20T08:27:08.734Z,96.37
2016-10-20T08:28:19.287Z,96.66
2016-10-20T08:29:29.926Z,96.27
2016-10-20T08:30:40.463Z,96.46
2016-10-20T08:31:50.988Z,96.46
2016-10-20T08:33:01.440Z,95.4
2016-10-20T08:34:12.077Z,95.31
2016-10-20T08:35:22.560Z,95.31
2016-10-20T08:36:33.051Z,94.73
2016-10-20T08:37:43.552Z,95.11
2016-10-20T08:38:54.082Z,95.11
2016-10-20T08:40:04.557Z,95.4
2016-10-20T08:41:15.031Z,95.21
2016-10-20T08:42:25.511Z,95.5
2016-10-20T08:43:35.978Z,95.02
2016-10-20T08:44:46.459Z,95.21
2016-10-20T08:45:57.090Z,95.26
2016-10-20T08:47:07.564Z,95.45
2016-10-20T08:48:18.063Z,94.68
2016-10-20T08:49:28.559Z,95.02
2016-10-20T08:50:39.020Z,94.87
2016-10-20T08:51:49.592Z,94.2
2016-10-20T08:53:00.140Z,94.29
2016-10-20T08:54:10.623Z,94.2
2016-10-20T08:55:21.604Z,94.39
2016-10-20T08:56:32.056Z,94.78
2016-10-20T08:57:42.513Z,94.48
2016-10-20T08:58:53.032Z,95.54
2016-10-20T09:00:03.520Z,97.86
2016-10-20T09:01:14.470Z,99.99
2016-10-20T09:02:25.003Z,99.99
2016-10-20T09:03:35.603Z,99.99
2016-10-20T09:04:46.063Z,99.99
2016-10-20T09:05:56.581Z,99.99
2016-10-20T09:07:07.052Z,99.99
2016-10-20T09:08:17.596Z,99.99
2016-10-20T09:09:28.055Z,99.99
2016-10-20T09:10:38.526Z,99.99
2016-10-20T09:11:49.023Z,99.99
2016-10-20T09:12:59.562Z,99.99
2016-10-20T09:14:10.016Z,99.99
2016-10-20T09:15:20.573Z,99.99
2016-10-20T09:16:31.089Z,99.99
2016-10-20T09:17:42.062Z,99.99
2016-10-20T09:18:52.623Z,99.99
2016-10-20T09:20:03.177Z,99.99
2016-10-20T09:21:13.748Z,99.99
2016-10-20T09:22:24.209Z,99.99
2016-10-20T09:23:34.672Z,99.99
2016-10-20T09:24:45.143Z,99.99
2016-10-20T09:25:56.137Z,99.99
2016-10-20T09:27:06.593Z,99.99
2016-10-20T09:28:17.114Z,99.99
2016-10-20T09:29:27.660Z,99.99
2016-10-20T09:30:38.179Z,99.99
2016-10-20T09:31:48.663Z,99.99
2016-10-20T09:32:59.352Z,99.99
2016-10-20T09:34:09.892Z,99.99
2016-10-20T09:35:20.351Z,99.99
2016-10-20T09:36:30.889Z,99.99
2016-10-20T09:37:41.362Z,99.99
2016-10-20T09:38:51.915Z,99.99
2016-10-20T09:40:02.554Z,99.99
2016-10-20T09:41:13.104Z,99.99
2016-10-20T09:42:23.652Z,99.99
2016-10-20T09:43:34.189Z,99.99
2016-10-20T09:44:44.846Z,99.99
2016-10-20T09:45:55.383Z,99.99
2016-10-20T09:47:05.945Z,99.99
2016-10-20T09:48:16.479Z,99.99
2016-10-20T09:49:27.021Z,99.99
2016-10-20T09:50:37.610Z,99.99
2016-10-20T09:51:48.108Z,99.99
2016-10-20T09:52:58.675Z,99.99
2016-10-20T09:54:09.207Z,99.99
2016-10-20T09:55:19.761Z,99.99
2016-10-20T09:56:30.285Z,99.99
2016-10-20T09:57:40.838Z,99.99
2016-10-20T09:58:51.345Z,99.99
2016-10-20T10:00:01.863Z,99.99
2016-10-20T10:01:12.376Z,99.99
2016-10-20T10:02:22.972Z,99.99
2016-10-20T10:03:33.463Z,99.99
2016-10-20T10:04:43.997Z,99.99
2016-10-20T10:05:54.565Z,99.99
2016-10-20T10:07:05.112Z,99.99
2016-10-20T10:08:15.741Z,99.99
2016-10-20T10:09:26.350Z,99.99
2016-10-20T10:10:36.921Z,99.99
2016-10-20T10:11:47.478Z,99.99
2016-10-20T10:12:58.012Z,99.59
2016-10-20T10:14:08.520Z,99.99
2016-10-20T10:15:18.980Z,99.99
2016-10-20T10:16:29.517Z,99.59
2016-10-20T10:17:40.044Z,98.34
2016-10-20T10:18:50.517Z,98.54
2016-10-20T10:20:01.105Z,97.67
2016-10-20T10:21:11.642Z,97.47
2016-10-20T10:22:22.082Z,98.15
2016-10-20T10:23:32.594Z,97.67
2016-10-20T10:24:43.124Z,93.81
2016-10-20T10:25:53.695Z,95.74
2016-10-20T10:27:04.208Z,96.61
2016-10-20T10:28:14.682Z,96.61
2016-10-20T10:29:25.151Z,94.2
2016-10-20T10:30:35.672Z,95.36
2016-10-20T10:31:46.174Z,95.84
2016-10-20T10:32:56.766Z,95.64
2016-10-20T10:34:07.325Z,95.74
2016-10-20T10:35:17.848Z,94.78
2016-10-20T10:36:28.313Z,94.44
2016-10-20T10:37:38.905Z,93.38
2016-10-20T10:38:49.401Z,91.45
2016-10-20T10:39:59.890Z,91.16
2016-10-20T10:41:10.413Z,92.51
2016-10-20T10:42:20.906Z,92.41
2016-10-20T10:43:31.399Z,91.2
2016-10-20T10:44:41.868Z,88.55
2016-10-20T10:45:52.414Z,87
2016-10-20T10:47:02.936Z,85.4
2016-10-20T10:48:13.892Z,83.12
2016-10-20T10:49:24.499Z,83.51
2016-10-20T10:50:34.998Z,80.36
2016-10-20T10:51:45.495Z,80.26
2016-10-20T10:52:55.972Z,79.14
2016-10-20T10:54:06.521Z,78.46
2016-10-20T10:55:17.129Z,78.56
2016-10-20T10:56:27.672Z,77.98
2016-10-20T10:57:38.142Z,78.66
2016-10-20T10:58:48.637Z,79.04
2016-10-20T10:59:59.190Z,76.97
2016-10-20T11:01:09.713Z,76.62
2016-10-20T11:02:20.204Z,76.66
2016-10-20T11:03:30.897Z,73.69
2016-10-20T11:04:41.724Z,71.99
2016-10-20T11:05:52.510Z,72.12
2016-10-20T11:07:03.818Z,70.57
2016-10-20T11:08:14.638Z,72.61
2016-10-20T11:09:25.342Z,69.64
2016-10-20T11:10:36.120Z,68.96
2016-10-20T11:11:46.839Z,68.37
2016-10-20T11:12:57.788Z,68.41
2016-10-20T11:14:08.608Z,66.3
2016-10-20T11:15:19.445Z,65.82
2016-10-20T11:16:30.868Z,66.63
2016-10-20T11:17:41.695Z,66.5
2016-10-20T11:18:52.594Z,65.95
2016-10-20T11:20:04.021Z,64.3
2016-10-20T11:21:14.901Z,63.36
2016-10-20T11:22:25.716Z,64.33
2016-10-20T11:23:36.804Z,61.93
2016-10-20T11:24:47.938Z,60.83
2016-10-20T11:25:59.033Z,60.96
2016-10-20T11:27:09.935Z,59.92
2016-10-20T11:28:20.880Z,58.95
2016-10-20T11:29:32.260Z,57.51
2016-10-20T11:30:43.091Z,57.42
2016-10-20T11:31:53.947Z,58.59
2016-10-20T11:33:04.828Z,60.75
2016-10-20T11:34:15.703Z,53.67
2016-10-20T11:35:26.575Z,56.62
2016-10-20T11:36:37.529Z,55.72
2016-10-20T11:37:48.419Z,55.5
2016-10-20T11:38:59.292Z,56.23
2016-10-20T11:40:10.135Z,54.93
2016-10-20T11:41:20.974Z,49.88
2016-10-20T11:42:32.030Z,50.29
2016-10-20T11:43:42.693Z,47.99
2016-10-20T11:44:53.405Z,47.89
2016-10-20T11:46:04.109Z,49.26
2016-10-20T11:47:14.830Z,48.97
2016-10-20T11:48:25.484Z,48.28
2016-10-20T11:49:36.253Z,47.6
2016-10-20T11:50:46.948Z,47.38
2016-10-20T11:51:57.645Z,49.07
2016-10-20T11:53:09.056Z,50.66
2016-10-20T11:54:19.847Z,46.3
2016-10-20T11:55:30.701Z,45.44
2016-10-20T11:56:41.542Z,44.27
2016-10-20T11:57:52.884Z,48.83
2016-10-20T11:59:03.605Z,52.15
2016-10-20T12:00:14.488Z,45.72
2016-10-20T12:01:25.288Z,47.8
2016-10-20T12:02:36.071Z,46.26
2016-10-20T12:03:46.796Z,46.72
2016-10-20T12:04:57.565Z,46.6
2016-10-20T12:06:08.331Z,45.72
2016-10-20T12:07:19.014Z,44.57
2016-10-20T12:08:29.621Z,46.43
2016-10-20T12:09:40.270Z,45.86
2016-10-20T12:10:51.057Z,46.33
2016-10-20T12:12:01.933Z,47.6
2016-10-20T12:13:12.735Z,47.5
2016-10-20T12:14:23.362Z,43.34
2016-10-20T12:15:33.951Z,43.09
2016-10-20T12:16:44.538Z,41.76
2016-10-20T12:17:55.122Z,42.03
2016-10-20T12:19:05.701Z,43.17
2016-10-20T12:20:16.293Z,45.2
2016-10-20T12:21:26.876Z,45.08
2016-10-20T12:22:37.981Z,45.06
2016-10-20T12:23:48.681Z,44.2
2016-10-20T12:24:59.273Z,43.73
2016-10-20T12:26:09.859Z,43.37
2016-10-20T12:27:20.428Z,42.82
2016-10-20T12:28:30.948Z,42.8
2016-10-20T12:29:41.588Z,44.83
2016-10-20T12:30:52.150Z,42.02
2016-10-20T12:32:02.670Z,42.13
2016-10-20T12:33:13.581Z,39.33
2016-10-20T12:34:24.651Z,39.86
2016-10-20T12:35:35.320Z,39.19
2016-10-20T12:36:45.867Z,39.88
2016-10-20T12:37:56.443Z,39.86
2016-10-20T12:39:07.042Z,39.58
2016-10-20T12:40:17.593Z,40.76
2016-10-20T12:41:28.164Z,40.84
2016-10-20T12:42:39.161Z,39.19
2016-10-20T12:43:49.713Z,39.68
2016-10-20T12:45:00.241Z,39.95
2016-10-20T12:46:11.296Z,41.02
2016-10-20T12:47:21.998Z,41.02
2016-10-20T12:48:33.060Z,40.92
2016-10-20T12:49:43.645Z,40.43
2016-10-20T12:50:54.212Z,39.35
2016-10-20T12:52:04.783Z,40.33
2016-10-20T12:53:15.337Z,39.06
2016-10-20T12:54:25.855Z,36.34
2016-10-20T12:55:36.876Z,39.98
2016-10-20T12:56:47.897Z,38.01
2016-10-20T12:57:58.486Z,37.23
2016-10-20T12:59:09.151Z,39.47
2016-10-20T13:00:19.623Z,38.9
2016-10-20T13:01:30.162Z,36.57
2016-10-20T13:02:41.470Z,35.23
2016-10-20T13:03:51.994Z,36.88
2016-10-20T13:05:02.587Z,38.92
2016-10-20T13:06:13.565Z,38.5
2016-10-20T13:07:24.063Z,36.63
2016-10-20T13:08:34.570Z,38.32
2016-10-20T13:09:45.046Z,38.6
2016-10-20T13:10:55.660Z,37.13
2016-10-20T13:12:06.653Z,38.46
2016-10-20T13:13:17.172Z,39.92
2016-10-20T13:14:27.650Z,36.99
2016-10-20T13:15:38.167Z,37.5
2016-10-20T13:16:48.664Z,37.7
2016-10-20T13:17:59.174Z,36.63
2016-10-20T13:19:09.676Z,37.11
2016-10-20T13:20:20.682Z,35.14
2016-10-20T13:21:31.189Z,37.72
2016-10-20T13:22:41.832Z,35.21
2016-10-20T13:23:52.302Z,37.48
2016-10-20T13:25:02.822Z,34.99
2016-10-20T13:26:13.327Z,34.61
2016-10-20T13:27:23.832Z,33.53
2016-10-20T13:28:34.827Z,33.13
2016-10-20T13:29:45.383Z,31.69
2016-10-20T13:30:55.938Z,32.24
2016-10-20T13:32:06.438Z,31.67
2016-10-20T13:33:16.932Z,30.4
2016-10-20T13:34:27.525Z,32.15
2016-10-20T13:35:38.552Z,31.09
2016-10-20T13:36:49.109Z,31.38
2016-10-20T13:37:59.627Z,30.4
2016-10-20T13:39:10.162Z,28.64
2016-10-20T13:40:20.817Z,29.53
2016-10-20T13:41:31.361Z,29.85
2016-10-20T13:42:41.903Z,28.86
2016-10-20T13:43:52.417Z,30.51
2016-10-20T13:45:03.355Z,29.82
2016-10-20T13:46:13.968Z,30.4
2016-10-20T13:47:24.488Z,30.21
2016-10-20T13:48:34.999Z,30.47
2016-10-20T13:49:45.513Z,32.05
2016-10-20T13:50:56.012Z,30.08
2016-10-20T13:52:06.528Z,30.9
2016-10-20T13:53:17.047Z,28.93
2016-10-20T13:54:27.579Z,30.32
2016-10-20T13:55:38.128Z,29.16
2016-10-20T13:56:48.621Z,28.77
2016-10-20T13:57:59.200Z,29.23
2016-10-20T13:59:09.672Z,29.71
2016-10-20T14:00:20.169Z,29.23
2016-10-20T14:01:30.648Z,30.58
2016-10-20T14:02:41.158Z,30.47
2016-10-20T14:03:51.753Z,30.38
2016-10-20T14:05:02.261Z,30.3
2016-10-20T14:06:12.834Z,30.1
2016-10-20T14:07:23.359Z,30.52
2016-10-20T14:08:33.899Z,31.01
2016-10-20T14:09:44.452Z,29.44
2016-10-20T14:10:55.025Z,28.85
2016-10-20T14:12:05.567Z,28.36
2016-10-20T14:13:16.151Z,29.92
2016-10-20T14:14:26.711Z,29.53
2016-10-20T14:15:37.382Z,29.06
2016-10-20T14:16:47.931Z,28.48
2016-10-20T14:17:58.439Z,29.06
2016-10-20T14:19:09.072Z,29.63
2016-10-20T14:20:19.580Z,29.05
2016-10-20T14:21:30.188Z,31.11
2016-10-20T14:22:40.745Z,29.16
2016-10-20T14:23:51.278Z,29.17
2016-10-20T14:25:01.861Z,28.1
2016-10-20T14:26:12.394Z,28.99
2016-10-20T14:27:22.951Z,29.2
2016-10-20T14:28:34.030Z,26.65
2016-10-20T14:29:44.597Z,27.45
2016-10-20T14:30:55.148Z,28.03
2016-10-20T14:32:05.661Z,29.68
2016-10-20T14:33:16.788Z,29.07
2016-10-20T14:34:27.358Z,29.38
2016-10-20T14:35:37.941Z,27.82
2016-10-20T14:36:48.492Z,27.04
2016-10-20T14:37:59.599Z,27.62
2016-10-20T14:39:10.168Z,28.17
2016-10-20T14:40:20.730Z,29.25
2016-10-20T14:41:31.284Z,27.69
2016-10-20T14:42:42.326Z,28.97
2016-10-20T14:43:52.892Z,29.07
2016-10-20T14:45:03.560Z,29.07
2016-10-20T14:46:14.149Z,28.28
2016-10-20T14:47:24.730Z,30.75
2016-10-20T14:48:35.290Z,27.91
2016-10-20T14:49:46.361Z,28.8
2016-10-20T14:50:56.946Z,29.07
2016-10-20T14:52:07.502Z,27.4
2016-10-20T14:53:18.077Z,28.99
2016-10-20T14:54:28.687Z,27.64
2016-10-20T14:55:39.272Z,27.64
2016-10-20T14:56:49.928Z,26.73
2016-10-20T14:58:00.934Z,26.43
2016-10-20T14:59:11.502Z,27.13
2016-10-20T15:00:22.079Z,27.13
2016-10-20T15:01:32.650Z,27.24
2016-10-20T15:02:43.295Z,26.75
2016-10-20T15:04:13.093Z,28.33
2016-10-20T15:05:23.672Z,27.03
2016-10-20T15:06:34.201Z,29.09
2016-10-20T15:07:45.239Z,28.86
2016-10-20T15:08:55.830Z,30.04
2016-10-20T15:10:06.405Z,27.79
2016-10-20T15:11:16.974Z,29.28
2016-10-20T15:12:27.579Z,27.03
2016-10-20T15:13:38.718Z,26.67